Estación meteorológica de St. Llorenç del Munt i l'Obac (Bages, P.N.de Sant Llorenç del Munt i l'Obac)

Consulta los datos en tiempo real de la estación meteorológica de St. Llorenç del Munt i l'Obac





Hora UTC 05:20
Temperatura 25.8 ºC
Humedad 46.3 %
Presión 1025.9 hPa
Pluja 0.0 mm
Velocidad viento 4.1 km/h
Dirección viento NE
Radiación solar 1.8 W/m²

Datos diarios 2026-09-05



Hora UTC (invierno +1h; verano +2h)
Temperatura (ºC) Humedad (%) Presión (hPa) Velocidad viento (km/h) Precipitación (mm) Radiación solar (W/m²)
Hora UTC Aire Humedad Presión Vel. Dir. Vel. Max Dir. Intent. máx 5 min. Rad. Sol.
00:05 26.5 43.2 1025.9 5.6 SW 5.6 WSW 0.0 0.1
00:10 26.4 43.4 1025.9 4.7 SW 7.8 SW 0.0 0.1
00:15 26.4 43.9 1025.9 6.0 SW 10.2 WSW 0.0 0.1
00:20 26.5 44.2 1025.9 3.6 SW 8.1 WSW 0.0 0.1
00:25 26.4 44.3 1025.9 3.9 SSW 6.7 SSW 0.0 0.1
00:30 26.3 44.5 1025.8 3.4 SSW 5.6 SW 0.0 0.1
00:35 26.2 44.7 1025.8 4.2 SW 6.7 WSW 0.0 0.1
00:40 26.3 45.2 1025.8 6.0 WSW 8.5 WSW 0.0 0.1
00:45 26.6 44.9 1025.8 5.9 WSW 8.8 WSW 0.0 0.1
00:50 26.6 44.6 1025.7 4.6 WSW 6.4 WSW 0.0 0.1
00:55 26.6 44.7 1025.7 5.1 W 8.1 W 0.0 0.1
01:00 26.6 45.2 1025.7 6.7 WNW 8.8 WNW 0.0 0.1
01:05 26.7 46.5 1025.7 6.0 WNW 9.2 WNW 0.0 0.1
01:10 26.6 48.0 1025.7 6.0 NW 8.1 WNW 0.0 0.1
01:15 26.3 49.7 1025.7 7.8 NNW 9.9 NNW 0.0 0.1
01:20 25.9 50.9 1025.7 7.9 NNW 9.9 NNW 0.0 0.1
01:25 25.7 51.5 1025.7 7.6 NNW 9.5 NNW 0.0 0.1
01:30 25.6 51.5 1025.7 6.3 NNW 8.1 NW 0.0 0.1
01:35 25.4 52.6 1025.7 5.1 NNW 7.8 NNW 0.0 0.1
01:40 25.2 52.3 1025.6 5.3 N 6.4 N 0.0 0.1
01:45 25.0 51.8 1025.6 5.3 N 6.7 N 0.0 0.1
01:50 25.1 50.4 1025.5 5.7 NNW 6.7 N 0.0 0.1
01:55 1024.2 5.7 7.8 NW 0.0 0.1
02:00 25.6 47.2 1025.6 6.9 NNW 8.1 NNW 0.0 0.1
02:05 25.7 47.3 1025.6 7.4 NNW 8.1 NNW 0.0 0.1
02:10 25.8 47.3 1025.5 7.9 NNW 9.2 NNW 0.0 0.1
02:15 25.9 46.6 1025.5 7.7 NW 9.9 WNW 0.0 0.1
02:20 26.1 45.4 1025.5 6.7 NW 13.1 NNW 0.0 0.1
02:25 26.2 45.8 1025.5 8.7 NW 11.3 NW 0.0 0.1
02:30 26.0 46.5 1025.5 6.9 NW 9.2 NNW 0.0 0.1
02:35 25.9 46.2 1025.5 6.5 NW 8.8 NW 0.0 0.1
02:40 25.9 45.3 1025.5 4.7 WNW 7.1 WNW 0.0 0.1
02:45 26.0 44.6 1025.5 5.1 NW 7.8 WNW 0.0 0.1
02:50 26.1 44.4 1025.5 6.3 W 8.8 WSW 0.0 0.1
02:55 26.5 43.7 1025.5 6.1 W 9.5 WSW 0.0 0.1
03:00 26.5 43.5 1025.5 6.1 W 11.6 WSW 0.0 0.1
03:05 26.6 43.6 1025.4 6.7 W 9.9 W 0.0 0.1
03:10 26.7 43.3 1025.4 7.0 WNW 9.9 W 0.0 0.1
03:15 26.7 43.3 1025.5 6.9 WNW 9.5 WNW 0.0 0.1
03:20 26.6 43.6 1025.5 6.9 NNW 9.5 NNW 0.0 0.1
03:25 26.2 44.2 1025.6 6.3 NW 9.5 NW 0.0 0.1
03:30 26.0 44.5 1025.6 7.5 NW 9.5 NNW 0.0 0.1
03:35 26.0 44.9 1025.5 7.3 NW 9.2 NW 0.0 0.1
03:40 26.1 44.2 1025.6 5.9 NW 7.8 NW 0.0 0.1
03:45 26.1 45.1 1025.6 6.5 NW 8.8 WNW 0.0 0.1
03:50 26.0 46.4 1025.5 5.7 NW 7.1 NW 0.0 0.1
03:55 25.9 46.9 1025.5 4.6 NW 6.4 NW 0.0 0.1
04:00 25.9 45.4 1025.5 2.6 WNW 5.3 NW 0.0 0.1
04:05 26.0 44.7 1025.5 3.0 WNW 6.0 WNW 0.0 0.1
04:10 26.0 44.4 1025.5 4.5 NW 6.7 WNW 0.0 0.1
04:15 26.1 44.8 1025.5 5.6 NW 7.8 NW 0.0 0.1
04:20 26.2 45.0 1025.5 6.2 NW 8.1 NW 0.0 0.1
04:25 26.2 44.8 1025.5 6.5 NW 8.1 NW 0.0 0.1
04:30 26.2 45.9 1025.6 6.5 NNW 7.8 NW 0.0 0.1
04:35 26.0 47.5 1025.7 5.9 NNW 6.4 NNW 0.0 0.1
04:40 25.8 47.5 1025.7 6.1 N 7.1 N 0.0 0.1
04:45 25.5 48.0 1025.7 4.6 NNE 6.4 N 0.0 0.1
04:50 25.4 49.0 1025.8 5.0 NNE 6.0 NNE 0.0 0.1
04:55 25.3 49.4 1025.8 5.2 N 6.4 N 0.0 0.1
05:00 25.2 49.8 1025.8 4.4 NNE 6.4 N 0.0 0.1
05:05 25.4 49.6 1025.8 5.3 NE 6.0 NE 0.0 0.2
05:10 25.5 48.2 1025.8 5.8 NE 6.4 NE 0.0 0.4
05:15 25.6 47.2 1025.8 4.9 NE 6.0 NE 0.0 0.9
05:20 25.8 46.3 1025.9 4.1 NE 4.9 NE 0.0 1.8
Máxima 26.7 52.6 1025.9 8.7 NW 13.1 NNW 0.0 1.8
Mínima 20 43.2 1024.2
Total 0.0